Latest METAR for ESKM

Raw:

2022/08/10 00:50 ESKM 100050Z AUTO 22005KT 9999 SCT160/// 15/13 Q1023

Decoded:
Siljan / Mora, Sweden (ESKM) 60-58N 014-31E
Aug 09, 2022 - 08:50 PM EDT / 2022.08.10 0050 UTC
Wind: from the SW (220 degrees) at 6 MPH (5 KT):0
Visibility: greater than 7 mile(s):0
Sky conditions: partly cloudy
Temperature: 59 F (15 C)
Dew Point: 55 F (13 C)
Relative Humidity: 87%
Pressure (altimeter): 30.21 in. Hg (1023 hPa)
ob: ESKM 100050Z AUTO 22005KT 9999 SCT160/// 15/13 Q1023
cycle: 1

Back